Aérodrome :
LOGIN :

S'inscrire | Disclaimer

   EN    FR    IT 

 










Légende :    VFR   VFR Marginal   IFR   IFR Intensif   IFR Très Intensif
Visi : 
Plafond : 
>= 8 km
>= 3000ft
5 à 8 km
1000 à 3000 ft
1500m à 5 km
500 à 1000 ft
800 à 1500m
200 à 500 ft
< 800m
< 200 ft
Symboles :   Orages  Brouillard  Fortes neiges  Fortes précipitations  Vent > 20 kt
SIGMETs :   Divers  Orages  Givrage  Turbulence  Onde Orograph.  Cendres Volcan.






- Altitude de l'aérodrome : 63 ft
- Code IATA : BZM


EHWO - Woensdrecht Airbase

DERNIER METAR :
  • 232159Z AUTO 19006KT 160V230 9999 DZ FEW010 BKN012 BKN015CB 16/16 Q0998 GRN

METARs EXPIRÉS :
  • 232155Z AUTO 19007KT 150V220 9999 -DZ FEW010 SCT013 FEW015CB BKN016 16/16 Q0998 REDZ GRN
  • 232148Z AUTO 19008KT 140V220 9999 -DZ FEW010 SCT014 FEW015CB BKN017 16/15 Q0998 GRN
  • 232139Z AUTO 19007KT 150V240 9999 DZ FEW012 BKN014 FEW015CB BKN016 16/15 Q0998 GRN
  • 232129Z AUTO 20006KT 170V240 9999 DZ SCT015CB BKN018 BKN022 17/16 Q0998 WHT
  • 232125Z AUTO 21007KT 160V240 9999 DZ SCT015CB SCT019 BKN025 17/15 Q0998 RERA REDZ WHT
  • 232109Z AUTO 20007KT 140V230 9999 -RA FEW013 FEW015CB SCT050 BKN065 16/16 Q0998 BLU
  • 232059Z AUTO 19007KT 160V230 9999 RADZ SCT015CB BKN026 OVC030 16/16 Q0998 WHT
  • 232037Z AUTO 19008KT 130V230 6000 +SHRA FEW007 BKN015CB BKN031 16/16 Q0999 WHT
  • 232030Z AUTO 19008KT 130V240 3500 +SHRA BKN015CB SCT034 BKN040 17/15 Q0999 YLO
  • 232005Z AUTO 20007KT 160V240 9999 -SHRA SCT015CB SCT033 BKN037 17/15 Q0999 WHT
  • 231955Z AUTO 19008KT 150V230 9999 -RA FEW017CB SCT041 BKN057 OVC063 19/14 Q0999 BLU
  • 231925Z AUTO 21008KT 160V250 9999 -DZ FEW017CB SCT078 BKN083 19/14 Q0999 REDZ BLU
  • 231909Z AUTO 22009KT 160V270 9999 -RA FEW018CB BKN072 BKN078 19/14 Q0999 BLU

TAF TAF EHWO
Valide du 23 à 13h jusqu'au 24 à 01h UTC


231229Z 2313/2401 21012G22KT 9999 SCT028
TEMPO 2313/2324 4000 SHRA SCT015 SCT020CB
TEMPO 2315/2318 19010KT
PROB30
TEMPO 2320/2324 3000 TSRA SCT012 SCT018CB



MET'MAP, la Météo Aéronautique d'un coup d'oeil ! - Copyright ORBIFLY Décembre 2007 - Disclaimer

ORBIFLY MET'MAP TEAM :

Programmation & Développement : Alexandra Zaïnal
Sur une idée originale de : Baudouin d'Aumeries
Assistance à la programmation : Marc-Olivier Méhu
Soutien technique & logistique : Manuel Goepfert

Contact : metmap@orbifly.com




SOURCES & CREDITS :

   NOAA